createdAt,value
2019-06-28T00:01:30.042Z,99.30
2019-06-28T00:03:59.389Z,99.40
2019-06-28T00:06:28.869Z,99.20
2019-06-28T00:08:58.314Z,99.20
2019-06-28T00:11:27.789Z,99.00
2019-06-28T00:13:57.107Z,99.90
2019-06-28T00:16:26.446Z,99.90
2019-06-28T00:18:55.832Z,99.90
2019-06-28T00:21:25.225Z,99.80
2019-06-28T00:23:54.462Z,99.30
2019-06-28T00:26:23.777Z,99.30
2019-06-28T00:28:53.114Z,99.30
2019-06-28T00:31:22.537Z,99.00
2019-06-28T00:33:51.723Z,99.00
2019-06-28T00:36:21.111Z,99.30
2019-06-28T00:38:50.573Z,99.90
2019-06-28T00:41:19.940Z,99.90
2019-06-28T00:43:49.382Z,99.90
2019-06-28T00:46:18.782Z,99.90
2019-06-28T00:48:48.185Z,99.90
2019-06-28T00:51:17.572Z,99.90
2019-06-28T00:53:47.005Z,99.90
2019-06-28T00:56:16.385Z,99.90
2019-06-28T00:58:45.767Z,99.90
2019-06-28T01:01:16.202Z,99.90
2019-06-28T01:03:45.727Z,99.90
2019-06-28T01:06:15.129Z,99.90
2019-06-28T01:08:44.568Z,99.90
2019-06-28T01:11:13.937Z,99.90
2019-06-28T01:13:45.139Z,99.90
2019-06-28T01:16:14.474Z,99.90
2019-06-28T01:18:43.834Z,99.90
2019-06-28T01:21:13.179Z,99.90
2019-06-28T01:23:42.505Z,99.90
2019-06-28T01:26:11.753Z,99.90
2019-06-28T01:28:41.254Z,99.90
2019-06-28T01:31:10.589Z,99.90
2019-06-28T01:33:41.358Z,99.90
2019-06-28T01:36:10.751Z,99.90
2019-06-28T01:38:40.215Z,99.90
2019-06-28T01:41:24.342Z,99.90
2019-06-28T01:43:40.872Z,99.90
2019-06-28T01:46:10.322Z,99.90
2019-06-28T01:48:39.695Z,99.90
2019-06-28T01:51:09.120Z,99.90
2019-06-28T01:53:38.424Z,99.90
2019-06-28T01:56:07.742Z,99.90
2019-06-28T01:58:37.108Z,99.90
2019-06-28T02:01:06.652Z,99.90
2019-06-28T02:03:36.016Z,99.90
2019-06-28T02:06:05.587Z,99.90
2019-06-28T02:08:35.027Z,99.90
2019-06-28T02:11:04.318Z,99.90
2019-06-28T02:13:36.576Z,99.90
2019-06-28T02:16:05.976Z,99.90
2019-06-28T02:18:35.425Z,99.90
2019-06-28T02:21:04.798Z,99.90
2019-06-28T02:23:34.142Z,99.90
2019-06-28T02:26:03.666Z,99.90
2019-06-28T02:28:33.048Z,99.90
2019-06-28T02:31:02.349Z,99.90
2019-06-28T02:33:31.787Z,99.90
2019-06-28T02:36:01.102Z,99.90
2019-06-28T02:38:30.526Z,99.90
2019-06-28T02:40:59.952Z,99.90
2019-06-28T02:43:31.406Z,99.90
2019-06-28T02:46:03.269Z,99.90
2019-06-28T02:48:31.985Z,99.90
2019-06-28T02:51:01.415Z,99.90
2019-06-28T02:53:30.721Z,99.90
2019-06-28T02:56:00.044Z,99.90
2019-06-28T03:02:10.805Z,99.90
2019-06-28T06:20:37.060Z,97.00
2019-06-28T06:23:09.413Z,96.80
2019-06-28T06:25:37.176Z,95.60
2019-06-28T06:28:06.373Z,95.40
2019-06-28T06:30:37.866Z,94.70
2019-06-28T06:36:36.484Z,95.30
2019-06-28T06:39:06.386Z,96.60
2019-06-28T06:41:35.618Z,95.60
2019-06-28T06:44:05.061Z,95.80
2019-06-28T06:46:34.354Z,94.50
2019-06-28T06:49:03.696Z,94.50
2019-06-28T06:51:33.082Z,93.80
2019-06-28T06:54:02.496Z,93.70
2019-06-28T06:56:31.812Z,93.90
2019-06-28T06:59:01.668Z,94.70
2019-06-28T07:01:31.060Z,94.20
2019-06-28T07:04:00.423Z,93.80
2019-06-28T07:06:29.760Z,93.90
2019-06-28T07:08:59.421Z,94.00
2019-06-28T07:11:28.762Z,93.70
2019-06-28T07:13:58.064Z,93.20
2019-06-28T07:16:27.497Z,92.70
2019-06-28T07:19:23.748Z,91.70
2019-06-28T07:21:52.969Z,92.10
2019-06-28T10:56:55.538Z,56.20
2019-06-28T10:59:24.831Z,54.80
2019-06-28T11:01:54.160Z,56.30
2019-06-28T11:04:23.472Z,58.30
2019-06-28T11:06:52.708Z,60.20
2019-06-28T11:09:22.077Z,58.80
2019-06-28T11:11:51.335Z,57.60
2019-06-28T11:14:20.605Z,59.90
2019-06-28T11:16:59.154Z,59.60
2019-06-28T11:19:20.799Z,58.80
2019-06-28T11:21:50.067Z,59.20
2019-06-28T11:24:19.352Z,56.60
2019-06-28T11:26:48.801Z,59.80
2019-06-28T11:29:18.082Z,59.40
2019-06-28T11:31:47.268Z,57.30
2019-06-28T11:34:16.511Z,55.90
2019-06-28T11:36:45.712Z,55.40
2019-06-28T11:39:15.048Z,53.40
2019-06-28T11:41:44.305Z,54.40
2019-06-28T11:44:13.507Z,54.10
2019-06-28T11:46:42.707Z,55.50
2019-06-28T11:49:11.991Z,56.30
2019-06-28T11:51:41.297Z,55.80
2019-06-28T11:54:10.653Z,54.70
2019-06-28T11:56:39.909Z,55.50
2019-06-28T11:59:09.200Z,55.60
2019-06-28T12:01:38.471Z,54.40
2019-06-28T12:04:07.845Z,53.70
2019-06-28T12:06:37.090Z,53.80
2019-06-28T12:09:07.237Z,53.20
2019-06-28T12:11:36.479Z,53.90
2019-06-28T12:14:05.761Z,54.40
2019-06-28T12:16:35.182Z,54.50
2019-06-28T12:19:04.490Z,53.50
2019-06-28T12:21:33.769Z,55.50
2019-06-28T12:24:03.032Z,55.50
2019-06-28T12:26:32.372Z,56.20
2019-06-28T12:29:01.691Z,55.00
2019-06-28T12:31:30.990Z,54.20
2019-06-28T12:34:00.163Z,53.80
2019-06-28T12:36:29.526Z,55.60
2019-06-28T12:38:59.050Z,54.50
2019-06-28T12:41:28.482Z,55.30
2019-06-28T12:43:57.675Z,53.90
2019-06-28T12:46:26.887Z,54.10
2019-06-28T12:48:56.235Z,53.50
2019-06-28T12:51:25.419Z,53.70
2019-06-28T12:53:54.676Z,54.40
2019-06-28T12:56:23.879Z,55.90
2019-06-28T12:58:53.070Z,56.80
2019-06-28T13:01:22.328Z,56.60
2019-06-28T13:03:51.614Z,56.10
2019-06-28T13:06:20.788Z,55.30
2019-06-28T13:08:50.087Z,57.00
2019-06-28T13:11:19.369Z,56.50
2019-06-28T13:13:48.569Z,54.50
2019-06-28T13:16:17.847Z,54.60
2019-06-28T13:18:47.947Z,56.00
2019-06-28T13:21:17.243Z,55.30
2019-06-28T13:23:46.490Z,56.10
2019-06-28T13:26:15.742Z,53.70
2019-06-28T13:28:44.984Z,53.00
2019-06-28T13:31:14.310Z,52.80
2019-06-28T13:33:43.618Z,51.70
2019-06-28T13:36:12.792Z,51.80
2019-06-28T13:38:42.056Z,52.00
2019-06-28T13:41:11.242Z,53.10
2019-06-28T13:43:40.532Z,57.00
2019-06-28T13:46:09.867Z,56.50
2019-06-28T13:48:39.162Z,57.10
2019-06-28T13:51:08.475Z,58.10
2019-06-28T13:53:37.684Z,59.30
2019-06-28T13:56:06.980Z,59.50
2019-06-28T13:58:36.296Z,61.30
2019-06-28T14:01:05.575Z,62.10
2019-06-28T14:03:34.851Z,63.50
2019-06-28T14:06:04.252Z,64.30
2019-06-28T14:08:33.480Z,66.00
2019-06-28T14:11:02.830Z,64.80
2019-06-28T14:13:32.033Z,65.40
2019-06-28T14:16:01.342Z,64.10
2019-06-28T14:18:38.768Z,64.50
2019-06-28T14:21:01.528Z,64.20
2019-06-28T14:23:30.730Z,64.60
2019-06-28T14:26:00.017Z,64.90
2019-06-28T14:28:29.280Z,65.50
2019-06-28T14:30:58.525Z,66.10
2019-06-28T14:33:27.834Z,66.10
2019-06-28T14:35:57.061Z,64.70
2019-06-28T14:38:26.278Z,66.20
2019-06-28T14:40:55.453Z,64.60
2019-06-28T14:43:24.800Z,64.80
2019-06-28T14:45:54.034Z,66.90
2019-06-28T14:48:23.309Z,66.40
2019-06-28T14:50:52.532Z,65.50
2019-06-28T14:53:21.796Z,65.70
2019-06-28T14:55:51.060Z,67.20
2019-06-28T14:58:21.714Z,66.20
2019-06-28T15:00:51.123Z,65.80
2019-06-28T15:03:20.420Z,66.30
2019-06-28T15:05:49.691Z,67.40
2019-06-28T15:08:19.017Z,66.40
2019-06-28T15:10:48.298Z,66.20
2019-06-28T15:13:17.560Z,66.70
2019-06-28T15:15:46.912Z,67.30
2019-06-28T15:18:16.093Z,67.10
2019-06-28T15:20:45.438Z,67.30
2019-06-28T15:23:14.733Z,68.40
2019-06-28T15:25:44.027Z,68.00
2019-06-28T15:28:13.377Z,68.50
2019-06-28T15:30:42.669Z,68.10
2019-06-28T15:33:11.921Z,68.30
2019-06-28T15:35:41.181Z,69.60
2019-06-28T15:38:10.448Z,68.80
2019-06-28T15:40:43.063Z,69.60
2019-06-28T15:43:10.818Z,69.60
2019-06-28T15:45:40.079Z,69.30
2019-06-28T15:48:09.371Z,68.20
2019-06-28T15:50:38.557Z,68.20
2019-06-28T15:53:07.781Z,68.30
2019-06-28T15:55:37.058Z,67.60
2019-06-28T15:58:06.430Z,68.20
2019-06-28T16:00:37.595Z,67.90
2019-06-28T16:03:07.266Z,66.80
2019-06-28T16:05:36.601Z,66.90
2019-06-28T16:08:05.965Z,66.90
2019-06-28T16:10:35.291Z,67.80
2019-06-28T16:13:04.550Z,68.00
2019-06-28T16:15:33.874Z,68.50
2019-06-28T16:18:03.158Z,68.10
2019-06-28T16:20:32.468Z,68.60
2019-06-28T16:23:01.661Z,68.70
2019-06-28T16:25:31.101Z,69.20
2019-06-28T16:28:00.316Z,68.40
2019-06-28T16:30:29.662Z,67.90
2019-06-28T16:32:58.958Z,68.50
2019-06-28T16:35:28.214Z,68.00
2019-06-28T16:37:57.614Z,68.70
2019-06-28T16:40:26.940Z,68.70
2019-06-28T16:42:56.500Z,68.60
2019-06-28T16:45:25.936Z,68.90
2019-06-28T16:47:55.207Z,69.00
2019-06-28T16:50:25.029Z,69.70
2019-06-28T16:52:54.419Z,69.80
2019-06-28T16:55:23.668Z,70.10
2019-06-28T16:57:53.035Z,69.90
2019-06-28T17:00:22.736Z,70.00
2019-06-28T17:02:52.633Z,69.30
2019-06-28T17:05:22.196Z,69.50
2019-06-28T17:07:51.497Z,69.10
2019-06-28T17:10:21.858Z,69.00
2019-06-28T17:12:51.216Z,68.00
2019-06-28T17:15:21.022Z,68.50
2019-06-28T17:17:50.589Z,68.00
2019-06-28T17:20:20.489Z,67.70
2019-06-28T17:22:50.270Z,67.50
2019-06-28T17:25:19.891Z,67.80
2019-06-28T17:27:49.435Z,67.90
2019-06-28T17:30:18.790Z,68.20
2019-06-28T17:32:48.204Z,68.30
2019-06-28T17:35:18.539Z,67.40
2019-06-28T17:37:47.997Z,68.90
2019-06-28T17:40:18.509Z,68.10
2019-06-28T17:42:47.898Z,68.00
2019-06-28T17:45:17.229Z,66.60
2019-06-28T17:47:46.644Z,67.40
2019-06-28T17:50:16.181Z,67.50
2019-06-28T17:52:45.835Z,68.10
2019-06-28T17:55:15.428Z,67.60
2019-06-28T17:57:45.060Z,67.60
2019-06-28T18:00:14.599Z,67.00
2019-06-28T18:02:44.046Z,67.30
2019-06-28T18:05:13.689Z,67.50
2019-06-28T18:07:43.070Z,67.10
2019-06-28T18:10:12.957Z,67.50
2019-06-28T18:12:42.331Z,67.30
2019-06-28T18:15:12.912Z,66.50
2019-06-28T18:17:42.322Z,67.00
2019-06-28T18:20:11.942Z,67.50
2019-06-28T18:22:43.050Z,66.80
2019-06-28T18:25:12.999Z,67.40
2019-06-28T18:27:42.344Z,68.20
2019-06-28T18:30:12.822Z,68.40
2019-06-28T18:32:43.797Z,68.40
2019-06-28T18:35:13.230Z,66.60
2019-06-28T18:37:42.504Z,67.00
2019-06-28T18:40:13.174Z,67.50
2019-06-28T18:42:42.598Z,68.30
2019-06-28T18:45:11.976Z,67.60
2019-06-28T18:47:41.409Z,68.70
2019-06-28T18:50:10.919Z,68.90
2019-06-28T18:52:40.404Z,69.70
2019-06-28T18:55:10.904Z,69.70
2019-06-28T18:57:40.439Z,70.00
2019-06-28T19:00:09.992Z,71.50
2019-06-28T19:02:43.559Z,72.30
2019-06-28T19:05:10.626Z,72.50
2019-06-28T19:07:39.999Z,73.00
2019-06-28T19:10:09.664Z,73.50
2019-06-28T19:12:39.383Z,74.20
2019-06-28T19:15:09.230Z,74.80
2019-06-28T19:17:38.576Z,76.40
2019-06-28T19:20:09.005Z,77.60
2019-06-28T19:22:38.378Z,78.10
2019-06-28T19:25:08.152Z,78.80
2019-06-28T19:27:37.516Z,79.20
2019-06-28T19:30:08.780Z,81.20
2019-06-28T19:32:38.209Z,82.10
2019-06-28T19:35:07.786Z,81.70
2019-06-28T19:37:37.283Z,82.30
2019-06-28T19:40:07.647Z,83.50
2019-06-28T19:42:37.151Z,84.60
2019-06-28T19:45:06.952Z,86.20
2019-06-28T19:47:36.313Z,87.70
2019-06-28T19:50:05.981Z,88.20
2019-06-28T19:52:35.526Z,89.60
2019-06-28T19:55:05.037Z,90.50
2019-06-28T19:57:34.435Z,91.00
2019-06-28T20:00:03.919Z,91.00
2019-06-28T20:02:33.189Z,91.80
2019-06-28T20:05:02.645Z,91.90
2019-06-28T20:07:31.984Z,92.40
2019-06-28T20:10:01.353Z,92.90
2019-06-28T20:12:30.645Z,93.20
2019-06-28T20:14:59.925Z,94.00
2019-06-28T20:17:29.177Z,94.40
2019-06-28T20:19:58.574Z,94.80
2019-06-28T20:22:27.913Z,95.20
2019-06-28T20:24:57.319Z,95.50
2019-06-28T20:27:26.707Z,95.60
2019-06-28T20:29:56.011Z,96.00
2019-06-28T20:32:25.205Z,96.60
2019-06-28T20:34:54.533Z,96.80
2019-06-28T20:37:23.865Z,97.10
2019-06-28T20:39:53.264Z,97.90
2019-06-28T20:42:22.602Z,98.60
2019-06-28T20:44:51.965Z,99.30
2019-06-28T20:47:21.320Z,99.50
2019-06-28T20:49:50.669Z,99.70
2019-06-28T20:52:20.041Z,99.90
2019-06-28T20:54:49.445Z,99.90
2019-06-28T20:57:18.823Z,99.90
2019-06-28T20:59:48.247Z,99.90
2019-06-28T21:02:17.492Z,99.90
2019-06-28T21:04:46.899Z,99.90
2019-06-28T21:07:16.183Z,99.90
2019-06-28T21:09:45.535Z,99.90
2019-06-28T21:12:14.961Z,99.90
2019-06-28T21:14:58.832Z,99.90
2019-06-28T21:17:15.485Z,99.90
2019-06-28T21:19:45.413Z,99.90
2019-06-28T21:22:30.402Z,99.90
2019-06-28T21:24:46.000Z,99.90
2019-06-28T21:27:15.763Z,99.90
2019-06-28T21:29:45.096Z,99.90
2019-06-28T21:32:14.431Z,99.90
2019-06-28T21:34:43.747Z,99.90
2019-06-28T21:37:13.205Z,99.90
2019-06-28T21:39:42.594Z,99.90
2019-06-28T21:42:11.903Z,99.90
2019-06-28T21:44:41.143Z,99.90
2019-06-28T21:47:10.489Z,99.90
2019-06-28T21:49:39.743Z,99.90
2019-06-28T21:52:09.057Z,99.90
2019-06-28T21:54:38.424Z,99.90
2019-06-28T21:57:07.708Z,99.90
2019-06-28T21:59:38.685Z,99.90
2019-06-28T22:02:08.106Z,99.90
2019-06-28T22:04:37.705Z,99.90
2019-06-28T22:07:07.025Z,99.90
2019-06-28T22:09:36.319Z,99.90
2019-06-28T22:12:05.959Z,99.90
2019-06-28T22:14:35.469Z,99.90
2019-06-28T22:17:05.252Z,99.90
2019-06-28T22:19:34.635Z,99.90
2019-06-28T22:22:04.450Z,99.90
2019-06-28T22:24:33.883Z,99.90
2019-06-28T22:27:03.336Z,99.90
2019-06-28T22:29:32.958Z,99.90
2019-06-28T22:32:02.396Z,99.90
2019-06-28T22:34:31.756Z,99.90
2019-06-28T22:37:01.412Z,99.90
2019-06-28T22:39:30.763Z,99.90
2019-06-28T22:42:00.408Z,99.90
2019-06-28T22:44:29.925Z,99.90
2019-06-28T22:46:59.466Z,99.90
2019-06-28T22:49:28.752Z,99.90
2019-06-28T22:51:58.372Z,99.90
2019-06-28T22:54:27.725Z,99.90
2019-06-28T22:56:57.078Z,99.90
2019-06-28T22:59:26.529Z,99.90
2019-06-28T23:01:58.575Z,99.90
2019-06-28T23:04:27.132Z,99.90
2019-06-28T23:06:56.588Z,99.90
2019-06-28T23:09:26.037Z,99.90
2019-06-28T23:11:55.546Z,99.90
2019-06-28T23:14:24.741Z,99.90
2019-06-28T23:16:53.974Z,99.90
2019-06-28T23:19:23.180Z,99.90
2019-06-28T23:21:52.496Z,99.90
2019-06-28T23:24:21.753Z,99.90
2019-06-28T23:26:51.020Z,99.90
2019-06-28T23:29:20.268Z,99.90
2019-06-28T23:31:49.440Z,99.90
2019-06-28T23:34:18.607Z,99.90
2019-06-28T23:36:47.856Z,99.90
2019-06-28T23:39:17.037Z,99.90
2019-06-28T23:41:46.313Z,99.90
2019-06-28T23:44:15.588Z,99.90
2019-06-28T23:46:46.234Z,99.90
2019-06-28T23:49:15.671Z,99.90
2019-06-28T23:51:44.940Z,99.90
2019-06-28T23:54:14.145Z,99.90
2019-06-28T23:56:43.419Z,99.90
2019-06-28T23:59:12.680Z,99.90
